Time;durP1;ratioP1;P1;durP2;ratioP2;P2;SDS_P1;SDS_P2;PMS_P1;PMS_P2;Temp;Humidity;BMP_temperature;BMP_pressure;BME280_temperature;BME280_humidity;BME280_pressure;Samples;Min_cycle;Max_cycle;Signal;HPM_P1;HPM_P2
2023/06/05 00:01:51;;;;;;;3.15;1.90;;;;;;;13.33;53.38;100993.37;1680768;85;21005;-63
2023/06/05 00:04:23;;;;;;;4.67;2.10;;;;;;;13.35;53.39;100991.80;1681028;85;21060;-63
2023/06/05 00:06:52;;;;;;;4.15;1.95;;;;;;;13.38;53.36;100996.05;1680212;85;21512;-64
2023/06/05 00:09:23;;;;;;;4.25;2.02;;;;;;;13.40;53.08;100998.92;1680639;85;21546;-62
2023/06/05 00:11:53;;;;;;;4.90;2.33;;;;;;;13.40;52.72;100994.80;1681214;85;21115;-63
2023/06/05 00:14:23;;;;;;;4.97;2.12;;;;;;;13.36;52.87;100994.88;1680899;85;21150;-62
2023/06/05 00:16:53;;;;;;;4.33;1.80;;;;;;;13.37;52.90;100996.58;1681753;85;21946;-62
2023/06/05 00:19:22;;;;;;;3.92;1.80;;;;;;;13.35;52.79;100990.42;1683361;85;21020;-62
2023/06/05 00:21:52;;;;;;;4.30;1.85;;;;;;;13.33;52.93;100992.52;1673984;85;21117;-63
2023/06/05 00:24:22;;;;;;;5.03;1.90;;;;;;;13.30;52.89;100995.68;1647508;87;21045;-62
2023/06/05 00:26:51;;;;;;;4.47;1.98;;;;;;;13.22;52.92;100991.19;1646050;87;21074;-61
2023/06/05 00:29:20;;;;;;;7.28;2.10;;;;;;;13.17;52.96;100988.18;1645275;87;21531;-61
2023/06/05 00:31:49;;;;;;;6.50;2.40;;;;;;;13.14;53.07;100987.70;1645434;87;21522;-62
2023/06/05 00:34:18;;;;;;;6.62;2.20;;;;;;;13.14;53.33;100994.05;1645288;87;21112;-63
2023/06/05 00:36:50;;;;;;;6.25;2.00;;;;;;;13.14;53.58;100990.45;1645563;87;21045;-61
2023/06/05 00:39:18;;;;;;;7.45;2.50;;;;;;;13.14;53.64;100991.83;1645350;87;21132;-62
2023/06/05 00:41:47;;;;;;;4.33;2.20;;;;;;;13.12;53.57;100992.55;1645420;87;21061;-62
2023/06/05 00:44:18;;;;;;;6.12;2.40;;;;;;;13.06;53.69;100993.35;1645341;87;21082;-63
2023/06/05 00:46:48;;;;;;;4.53;2.00;;;;;;;13.01;53.78;100990.67;1645657;87;21021;-63
2023/06/05 00:49:17;;;;;;;5.10;2.67;;;;;;;12.97;53.96;100986.59;1645595;87;21072;-62
2023/06/05 00:51:46;;;;;;;8.68;2.70;;;;;;;12.98;54.19;100986.06;1645605;87;21100;-63
2023/06/05 00:54:15;;;;;;;5.83;2.80;;;;;;;12.99;54.37;100980.36;1645575;87;21042;-63
2023/06/05 00:56:44;;;;;;;7.05;2.77;;;;;;;13.00;54.54;100990.84;1645821;87;21544;-64
2023/06/05 00:59:13;;;;;;;10.88;3.10;;;;;;;12.97;54.63;100981.08;1645420;86;21097;-63
2023/06/05 01:01:42;;;;;;;5.65;2.75;;;;;;;12.95;54.85;100985.94;1645611;87;21061;-63
2023/06/05 01:04:11;;;;;;;4.30;2.65;;;;;;;12.92;55.10;100983.58;1645280;87;21057;-62
2023/06/05 01:06:43;;;;;;;3.52;1.95;;;;;;;12.86;55.32;100985.75;1645405;87;21109;-63
2023/06/05 01:09:13;;;;;;;7.40;2.75;;;;;;;12.79;55.41;100984.84;1645529;87;21045;-63
2023/06/05 01:12:17;;;;;;;6.92;2.35;;;;;;;12.75;55.49;100980.79;1645438;86;21140;-63
2023/06/05 01:14:48;;;;;;;8.85;2.67;;;;;;;12.75;55.68;100986.29;1645424;87;21049;-64
2023/06/05 01:17:18;;;;;;;6.58;2.77;;;;;;;12.77;55.65;100980.06;1645364;87;21503;-62
2023/06/05 01:19:49;;;;;;;10.85;2.95;;;;;;;12.78;55.68;100988.64;1645485;86;21093;-63
2023/06/05 01:22:18;;;;;;;6.33;3.17;;;;;;;12.72;56.04;100986.69;1646761;86;21493;-63
2023/06/05 01:24:47;;;;;;;8.10;3.00;;;;;;;12.66;56.25;100986.09;1631497;87;21042;-62
2023/06/05 01:27:35;;;;;;;6.15;3.15;;;;;;;12.62;56.42;100991.66;1653063;87;21058;-64
2023/06/05 01:30:13;;;;;;;5.53;2.95;;;;;;;12.63;56.73;100990.62;1650095;87;21065;-63
2023/06/05 01:32:57;;;;;;;9.38;2.65;;;;;;;12.60;57.01;100996.51;1649602;87;21059;-63
2023/06/05 01:35:27;;;;;;;5.28;2.60;;;;;;;12.54;57.24;100991.80;1649818;87;21095;-63
2023/06/05 01:37:58;;;;;;;6.65;2.80;;;;;;;12.48;57.52;100983.81;1649738;87;21529;-62
2023/06/05 01:40:26;;;;;;;5.87;2.33;;;;;;;12.43;57.97;100981.32;1650122;87;21061;-62
2023/06/05 01:42:56;;;;;;;7.95;2.55;;;;;;;12.32;58.34;100988.16;1649983;87;21054;-63
2023/06/05 01:45:25;;;;;;;8.40;2.75;;;;;;;12.28;58.66;100988.22;1649757;87;21066;-63
2023/06/05 01:47:56;;;;;;;6.65;2.20;;;;;;;12.26;59.01;100991.67;1649727;87;21050;-63
2023/06/05 01:50:27;;;;;;;5.42;2.58;;;;;;;12.29;59.08;100983.05;1649854;86;21498;-63
2023/06/05 01:52:56;;;;;;;4.65;2.33;;;;;;;12.33;59.13;100988.48;1649816;86;21046;-64
2023/06/05 01:55:26;;;;;;;5.08;2.02;;;;;;;12.36;59.04;100986.23;1649791;86;21548;-63
2023/06/05 01:57:56;;;;;;;6.60;2.33;;;;;;;12.38;58.91;100989.63;1649765;87;21070;-64
2023/06/05 02:00:24;;;;;;;3.98;2.10;;;;;;;12.40;59.01;100984.46;1649829;87;21063;-63
2023/06/05 02:02:53;;;;;;;6.80;2.62;;;;;;;12.37;59.37;100985.18;1650043;87;21091;-63
2023/06/05 02:05:22;;;;;;;9.03;2.50;;;;;;;12.37;59.50;100982.95;1649913;87;21042;-61
2023/06/05 02:07:53;;;;;;;4.08;2.30;;;;;;;12.37;59.56;100985.70;1649738;87;21474;-63
2023/06/05 02:10:23;;;;;;;6.17;2.85;;;;;;;12.34;59.67;100984.16;1649787;87;21510;-63
2023/06/05 02:12:52;;;;;;;6.83;2.50;;;;;;;12.33;59.91;100985.20;1649994;87;21082;-63
2023/06/05 02:15:22;;;;;;;4.85;2.47;;;;;;;12.31;60.09;100985.08;1648881;87;21054;-62
2023/06/05 02:17:52;;;;;;;8.95;2.30;;;;;;;12.27;60.31;100982.39;1649882;87;21081;-63
2023/06/05 02:20:28;;;;;;;12.55;2.98;;;;;;;12.21;60.55;100987.29;1649499;85;21547;-62
2023/06/05 02:22:58;;;;;;;5.90;2.30;;;;;;;12.21;60.89;100986.77;1650173;85;21058;-62
2023/06/05 02:25:28;;;;;;;6.12;2.20;;;;;;;12.25;61.00;100995.47;1649703;87;21058;-63
2023/06/05 02:27:57;;;;;;;4.45;2.42;;;;;;;12.26;61.03;100984.29;1649804;87;21074;-63
2023/06/05 02:30:26;;;;;;;4.83;2.02;;;;;;;12.27;61.11;100990.11;1649743;87;21038;-62
2023/06/05 02:33:00;;;;;;;5.17;2.30;;;;;;;12.32;60.95;100988.16;1618032;88;21145;-63
2023/06/05 02:35:31;;;;;;;7.15;2.50;;;;;;;12.38;60.73;100996.50;1649841;86;21054;-63
2023/06/05 02:37:59;;;;;;;9.00;2.80;;;;;;;12.38;60.72;100988.78;1649883;87;21089;-63
2023/06/05 02:40:29;;;;;;;8.13;3.15;;;;;;;12.34;60.91;100990.19;1649858;87;21458;-62
2023/06/05 02:42:58;;;;;;;6.00;2.37;;;;;;;12.31;61.17;100988.67;1649899;87;21050;-63
2023/06/05 02:45:26;;;;;;;6.00;2.30;;;;;;;12.28;61.35;100991.81;1649921;87;21030;-63
2023/06/05 02:47:55;;;;;;;7.08;2.37;;;;;;;12.30;61.44;100988.88;1649922;86;21085;-63
2023/06/05 02:50:24;;;;;;;9.18;2.83;;;;;;;12.29;61.36;100987.17;1649783;87;21058;-62
2023/06/05 02:52:56;;;;;;;4.65;2.15;;;;;;;12.32;61.25;100985.41;1649831;87;21089;-62
2023/06/05 02:55:29;;;;;;;7.80;2.70;;;;;;;12.34;61.20;100984.16;1649629;86;21102;-63
2023/06/05 02:57:57;;;;;;;6.53;2.55;;;;;;;12.41;61.24;100980.67;1649755;86;21533;-62
2023/06/05 03:00:28;;;;;;;10.88;3.52;;;;;;;12.42;61.35;100983.22;1649990;87;21082;-63
2023/06/05 03:03:00;;;;;;;7.85;2.62;;;;;;;12.44;61.46;100982.50;1649400;86;21556;-63
2023/06/05 03:05:30;;;;;;;6.60;2.70;;;;;;;12.46;61.63;100985.05;1649833;87;21078;-64
2023/06/05 03:08:01;;;;;;;5.70;2.52;;;;;;;12.46;61.64;100983.68;1649649;86;21058;-63
2023/06/05 03:10:30;;;;;;;6.92;2.90;;;;;;;12.51;61.47;100985.31;1649620;87;21018;-63
2023/06/05 03:13:00;;;;;;;8.93;2.52;;;;;;;12.57;61.35;100983.16;1650440;87;21085;-64
2023/06/05 03:15:30;;;;;;;6.90;2.50;;;;;;;12.57;61.29;100982.63;1649751;87;21524;-62
2023/06/05 03:17:59;;;;;;;8.03;2.80;;;;;;;12.59;61.30;100983.81;1649926;87;21089;-62
2023/06/05 03:20:29;;;;;;;6.87;2.40;;;;;;;12.58;61.27;100982.95;1649857;86;21132;-64
2023/06/05 03:22:57;;;;;;;5.53;2.55;;;;;;;12.61;61.17;100983.94;1648668;85;21100;-65
2023/06/05 03:25:27;;;;;;;8.78;2.85;;;;;;;12.67;61.13;100980.92;1645317;86;21089;-64
2023/06/05 03:27:58;;;;;;;6.67;2.65;;;;;;;12.72;61.03;100978.44;1645689;87;21096;-63
2023/06/05 03:30:29;;;;;;;7.15;2.50;;;;;;;12.75;61.04;100982.16;1645564;87;21056;-63
2023/06/05 03:33:01;;;;;;;7.78;2.75;;;;;;;12.77;60.96;100984.19;1644982;87;21515;-63
2023/06/05 03:35:32;;;;;;;6.92;2.30;;;;;;;12.85;60.69;100981.30;1647303;87;21061;-63
2023/06/05 03:38:03;;;;;;;9.33;2.80;;;;;;;12.95;60.26;100985.94;1646986;87;21025;-63
2023/06/05 03:40:32;;;;;;;12.30;2.80;;;;;;;13.05;60.08;100988.38;1647701;87;21049;-62
2023/06/05 03:43:01;;;;;;;7.05;2.80;;;;;;;13.14;59.60;100987.17;1647306;87;21434;-64
2023/06/05 03:45:36;;;;;;;5.10;2.35;;;;;;;13.20;59.28;100987.78;1645951;87;21108;-64
2023/06/05 03:48:06;;;;;;;6.25;2.10;;;;;;;13.29;58.87;100993.98;1645387;86;21061;-62
2023/06/05 03:50:41;;;;;;;5.30;2.15;;;;;;;13.38;57.98;100990.55;1648590;86;21097;-63
2023/06/05 03:53:13;;;;;;;4.55;2.10;;;;;;;13.48;56.79;100986.91;1613320;89;21025;-64
2023/06/05 03:55:49;;;;;;;4.90;2.17;;;;;;;13.59;56.04;100992.69;1645611;86;21084;-62
2023/06/05 03:58:19;;;;;;;5.22;2.00;;;;;;;13.69;55.76;100985.47;1644864;86;21104;-62
2023/06/05 04:00:50;;;;;;;3.85;1.80;;;;;;;13.78;55.29;100985.62;1645233;86;21074;-64
2023/06/05 04:03:21;;;;;;;7.78;2.10;;;;;;;13.87;54.66;100978.03;1645528;86;21069;-62
2023/06/05 04:05:52;;;;;;;10.68;2.67;;;;;;;13.97;54.35;100986.77;1645651;87;21080;-63
2023/06/05 04:08:21;;;;;;;6.22;2.50;;;;;;;14.06;53.64;100980.55;1645546;86;21104;-61
2023/06/05 04:10:50;;;;;;;7.92;2.20;;;;;;;14.14;53.13;100977.08;1643603;86;21157;-63
2023/06/05 04:13:21;;;;;;;6.97;2.45;;;;;;;14.23;53.27;100979.97;1644027;86;21041;-62
2023/06/05 04:15:50;;;;;;;10.93;2.65;;;;;;;14.32;52.92;100978.43;1645385;86;21037;-63
2023/06/05 04:18:19;;;;;;;6.60;2.22;;;;;;;14.37;52.85;100985.55;1645385;87;21577;-62
2023/06/05 04:20:48;;;;;;;8.98;2.30;;;;;;;14.42;52.32;100982.52;1644905;87;21555;-62
2023/06/05 04:23:19;;;;;;;3.77;1.57;;;;;;;14.50;52.03;100985.61;1652594;85;21114;-63
2023/06/05 04:25:48;;;;;;;5.30;2.27;;;;;;;14.57;51.21;100985.94;1642256;87;21085;-63
2023/06/05 04:28:18;;;;;;;8.90;2.40;;;;;;;14.69;51.11;100987.55;1676563;85;21097;-63
2023/06/05 04:30:47;;;;;;;4.65;1.80;;;;;;;14.76;51.26;100984.27;1676404;85;21052;-63
2023/06/05 04:33:17;;;;;;;6.47;1.90;;;;;;;14.84;50.82;100985.44;1676167;85;21045;-63
2023/06/05 04:35:46;;;;;;;5.62;2.10;;;;;;;14.94;50.92;100985.55;1676243;85;21074;-63
2023/06/05 04:38:20;;;;;;;4.55;1.60;;;;;;;15.01;50.31;100980.91;1676363;85;21109;-63
2023/06/05 04:40:50;;;;;;;10.08;5.03;;;;;;;15.11;48.67;100988.23;1676597;85;21041;-63
2023/06/05 04:43:18;;;;;;;6.62;1.90;;;;;;;15.26;47.52;100986.62;1678620;84;21096;-62
2023/06/05 04:45:50;;;;;;;3.20;1.67;;;;;;;15.42;46.90;100982.87;1678619;85;21108;-63
2023/06/05 04:48:20;;;;;;;4.00;1.10;;;;;;;15.58;46.25;100988.50;1678558;85;21124;-63
2023/06/05 04:50:49;;;;;;;4.62;1.30;;;;;;;15.76;45.47;100987.84;1678679;85;21053;-64
2023/06/05 04:53:19;;;;;;;8.73;1.77;;;;;;;15.94;44.81;100984.38;1678622;85;21086;-64
2023/06/05 04:55:48;;;;;;;3.75;1.30;;;;;;;16.16;44.32;100983.01;1678591;85;21048;-63
2023/06/05 04:58:19;;;;;;;2.62;1.20;;;;;;;16.39;43.89;100981.95;1678316;85;21172;-62
2023/06/05 05:00:49;;;;;;;4.72;1.30;;;;;;;16.73;43.07;100986.23;1678670;85;21081;-64
2023/06/05 05:03:19;;;;;;;2.33;1.00;;;;;;;17.10;42.30;100987.77;1678281;85;21115;-64
2023/06/05 05:05:48;;;;;;;2.95;1.20;;;;;;;17.50;41.41;100986.01;1678643;85;21077;-63
2023/06/05 05:08:17;;;;;;;4.90;1.32;;;;;;;17.90;40.26;100983.16;1678551;85;21092;-64
2023/06/05 05:10:46;;;;;;;3.40;1.05;;;;;;;18.24;39.56;100989.17;1678073;85;21591;-64
2023/06/05 05:13:15;;;;;;;4.17;1.50;;;;;;;18.56;38.88;100980.91;1677835;85;21068;-64
2023/06/05 05:15:46;;;;;;;4.00;1.07;;;;;;;18.90;38.32;100979.92;1678403;85;21488;-65
2023/06/05 05:18:16;;;;;;;5.50;1.60;;;;;;;19.23;37.40;100978.81;1677954;85;21040;-63
2023/06/05 05:20:46;;;;;;;3.72;1.40;;;;;;;19.50;37.11;100979.71;1678379;85;21064;-64
2023/06/05 05:23:17;;;;;;;3.33;1.17;;;;;;;19.79;36.48;100978.78;1672387;85;21080;-64
2023/06/05 05:25:46;;;;;;;3.67;1.62;;;;;;;20.09;36.00;100979.13;1645587;86;21121;-63
2023/06/05 05:28:15;;;;;;;9.85;1.40;;;;;;;20.44;35.34;100982.69;1645489;87;21105;-64
2023/06/05 05:30:45;;;;;;;10.15;1.75;;;;;;;20.66;34.34;100983.38;1645461;87;21109;-64
2023/06/05 05:33:15;;;;;;;4.62;1.30;;;;;;;20.86;34.43;100981.83;1645338;87;21527;-64
2023/06/05 05:35:46;;;;;;;2.60;1.20;;;;;;;21.06;33.59;100986.91;1645228;87;21074;-64
2023/06/05 05:38:15;;;;;;;5.53;1.60;;;;;;;21.29;33.81;100983.69;1613186;88;21575;-63
2023/06/05 05:40:44;;;;;;;5.55;1.37;;;;;;;21.62;33.09;100985.06;1613318;89;21564;-64
2023/06/05 05:43:13;;;;;;;4.35;1.40;;;;;;;21.92;32.60;100981.02;1613373;89;21077;-64
2023/06/05 05:45:43;;;;;;;4.62;1.10;;;;;;;22.24;32.09;100986.23;1597770;90;21105;-64
2023/06/05 05:48:12;;;;;;;3.70;1.25;;;;;;;22.52;31.46;100976.78;1613347;88;21145;-65
2023/06/05 05:50:41;;;;;;;5.62;1.10;;;;;;;22.67;30.43;100982.52;1588806;90;21055;-65
2023/06/05 05:53:10;;;;;;;3.02;1.12;;;;;;;22.76;30.10;100982.92;1613387;89;21060;-64
2023/06/05 05:55:39;;;;;;;2.08;1.07;;;;;;;22.85;30.40;100977.17;1597464;90;21098;-63
2023/06/05 05:58:07;;;;;;;4.50;1.20;;;;;;;23.04;30.22;100979.02;1613257;89;21564;-65
2023/06/05 06:00:37;;;;;;;3.02;1.10;;;;;;;23.28;29.42;100978.94;1639028;87;21477;-64
2023/06/05 06:03:07;;;;;;;3.33;1.50;;;;;;;23.43;29.44;100978.80;1638936;86;21053;-64
2023/06/05 06:05:37;;;;;;;4.55;1.42;;;;;;;23.59;29.55;100976.41;1642854;87;21567;-64
2023/06/05 06:08:06;;;;;;;12.50;4.25;;;;;;;23.86;29.15;100972.93;1645744;87;21096;-64
2023/06/05 06:10:36;;;;;;;13.25;2.70;;;;;;;24.14;28.94;100975.89;1645439;86;21121;-63
2023/06/05 06:13:05;;;;;;;6.60;3.10;;;;;;;24.41;28.57;100972.09;1645898;86;21041;-63
2023/06/05 06:15:34;;;;;;;3.83;1.40;;;;;;;24.59;27.45;100968.77;1645312;87;21080;-64
2023/06/05 06:18:03;;;;;;;3.75;1.25;;;;;;;24.68;27.65;100971.88;1645587;86;21045;-65
2023/06/05 06:20:34;;;;;;;4.28;0.98;;;;;;;24.89;26.94;100971.65;1645315;87;21073;-64
2023/06/05 06:23:03;;;;;;;0.95;0.82;;;;;;;24.93;27.12;100974.17;1613101;88;21077;-63
2023/06/05 06:25:32;;;;;;;5.55;1.17;;;;;;;25.06;26.51;100971.41;1661073;85;21501;-62
2023/06/05 06:28:01;;;;;;;8.23;2.25;;;;;;;25.22;26.80;100969.44;1676027;85;21574;-65
2023/06/05 06:30:30;;;;;;;3.55;1.00;;;;;;;25.44;26.26;100971.98;1643834;87;21044;-63
2023/06/05 06:33:00;;;;;;;3.58;1.12;;;;;;;25.52;25.98;100974.20;1643175;87;21063;-63
2023/06/05 06:35:31;;;;;;;3.40;1.10;;;;;;;25.52;26.31;100975.05;1675287;85;21483;-63
2023/06/05 06:38:00;;;;;;;3.33;1.27;;;;;;;25.64;25.80;100973.34;1643308;86;21047;-64
2023/06/05 06:40:29;;;;;;;1.70;0.90;;;;;;;25.76;25.43;100979.52;1676298;85;21132;-65
2023/06/05 06:42:58;;;;;;;2.05;1.40;;;;;;;25.90;24.94;100969.36;1676131;85;21052;-64
2023/06/05 06:45:35;;;;;;;1.95;1.30;;;;;;;25.89;25.07;100976.67;1675482;85;21042;-64
2023/06/05 06:48:04;;;;;;;1.20;0.80;;;;;;;25.94;24.99;100978.06;1676428;85;21061;-64
2023/06/05 06:50:36;;;;;;;1.72;0.90;;;;;;;26.00;24.99;100975.51;1643206;87;21505;-65
2023/06/05 06:53:05;;;;;;;6.85;1.65;;;;;;;26.09;24.63;100972.41;1675317;85;21072;-66
2023/06/05 06:55:34;;;;;;;3.25;1.30;;;;;;;26.21;24.50;100974.33;1643207;87;21068;-65
2023/06/05 06:58:05;;;;;;;3.75;1.20;;;;;;;26.38;24.63;100975.97;1675796;85;21033;-64
2023/06/05 07:00:34;;;;;;;2.25;0.90;;;;;;;26.57;24.25;100977.54;1676188;85;21041;-64
2023/06/05 07:03:04;;;;;;;2.90;1.10;;;;;;;26.81;22.63;100981.34;1676275;85;21041;-65
2023/06/05 07:05:33;;;;;;;2.70;1.15;;;;;;;26.81;22.63;100981.34;1676434;85;21064;-64
2023/06/05 07:08:03;;;;;;;3.70;1.25;;;;;;;26.85;22.82;100981.88;1676363;85;21037;-64
2023/06/05 07:10:31;;;;;;;4.45;1.30;;;;;;;26.88;22.12;100983.83;1642981;87;21087;-65
2023/06/05 07:13:00;;;;;;;5.37;1.47;;;;;;;27.11;22.09;100978.90;1677620;85;21089;-65
2023/06/05 07:15:29;;;;;;;1.32;0.82;;;;;;;27.11;22.09;100978.90;1646419;87;21035;-64
2023/06/05 07:17:59;;;;;;;5.05;1.00;;;;;;;27.19;21.49;100974.05;1678355;85;21033;-66
2023/06/05 07:20:28;;;;;;;2.17;0.90;;;;;;;27.27;21.08;100969.19;1644503;87;21072;-63
2023/06/05 07:23:00;;;;;;;8.80;2.80;;;;;;;27.30;21.42;100971.41;1620301;88;21101;-65
2023/06/05 07:25:29;;;;;;;2.77;1.02;;;;;;;27.33;21.75;100964.38;1609480;87;21501;-63
2023/06/05 07:27:59;;;;;;;3.20;1.27;;;;;;;27.42;21.72;100968.23;1651951;86;21061;-64
2023/06/05 07:30:28;;;;;;;4.33;1.05;;;;;;;27.56;21.74;100962.75;1647915;87;21054;-64
2023/06/05 07:32:58;;;;;;;3.62;1.10;;;;;;;27.72;21.65;100971.33;1648057;86;21018;-65
2023/06/05 07:35:27;;;;;;;4.70;1.30;;;;;;;27.87;21.34;100974.55;1647854;86;21074;-64
2023/06/05 07:37:57;;;;;;;1.62;0.90;;;;;;;27.89;20.84;100969.45;1647910;87;21018;-63
2023/06/05 07:40:26;;;;;;;5.62;1.10;;;;;;;27.67;21.02;100967.16;1647783;87;21548;-64
2023/06/05 07:42:55;;;;;;;1.77;1.20;;;;;;;27.39;21.07;100968.83;1647951;86;21022;-64
2023/06/05 07:45:24;;;;;;;6.95;2.02;;;;;;;27.09;21.78;100965.13;1647783;87;21046;-64
2023/06/05 07:47:53;;;;;;;6.35;2.60;;;;;;;26.73;21.77;100966.50;1647787;87;21019;-63
2023/06/05 07:50:25;;;;;;;2.72;1.20;;;;;;;26.36;21.71;100968.38;1647903;87;21040;-65
2023/06/05 07:52:54;;;;;;;6.62;2.27;;;;;;;25.94;21.59;100976.66;1647793;86;21085;-66
2023/06/05 07:55:23;;;;;;;5.15;1.67;;;;;;;25.53;21.82;100971.12;1648209;87;21090;-63
2023/06/05 07:57:52;;;;;;;1.60;1.00;;;;;;;25.24;22.17;100974.21;1647826;86;21109;-66
2023/06/05 08:00:22;;;;;;;4.87;1.05;;;;;;;25.00;22.48;100975.89;1648129;87;21114;-64
2023/06/05 08:02:51;;;;;;;8.28;2.33;;;;;;;24.80;22.64;100973.33;1648115;86;21272;-63
2023/06/05 08:05:20;;;;;;;7.10;1.90;;;;;;;24.61;22.67;100972.98;1647861;86;21089;-63
2023/06/05 08:07:48;;;;;;;9.08;1.82;;;;;;;24.46;22.78;100979.95;1648166;87;21065;-62
2023/06/05 08:10:18;;;;;;;14.65;2.40;;;;;;;24.51;22.44;100980.52;1647902;87;21502;-67
2023/06/05 08:12:47;;;;;;;3.62;1.20;;;;;;;24.73;22.47;100971.35;1643784;85;21056;-65
2023/06/05 08:15:16;;;;;;;1.37;0.90;;;;;;;25.12;22.26;100973.09;1641888;85;21479;-65
2023/06/05 08:17:44;;;;;;;2.33;1.10;;;;;;;25.45;22.46;100968.89;1642423;87;21519;-66
2023/06/05 08:20:15;;;;;;;4.62;1.10;;;;;;;25.77;21.96;100968.56;1642602;86;21048;-67
2023/06/05 08:22:45;;;;;;;1.92;0.88;;;;;;;25.92;21.50;100971.89;1614311;87;21254;-67
2023/06/05 08:25:13;;;;;;;3.50;1.55;;;;;;;25.85;21.26;100976.97;1626608;87;21140;-66
2023/06/05 08:27:42;;;;;;;8.40;2.20;;;;;;;25.70;21.38;100966.62;1651920;87;21114;-65
2023/06/05 08:30:12;;;;;;;2.45;1.02;;;;;;;25.72;21.37;100974.20;1651087;86;21046;-63
2023/06/05 08:32:43;;;;;;;3.72;1.40;;;;;;;25.77;21.20;100967.72;1633548;88;21915;-61
2023/06/05 08:35:15;;;;;;;3.08;1.30;;;;;;;25.76;20.91;100977.27;1637395;87;21522;-63
2023/06/05 08:37:43;;;;;;;3.37;1.12;;;;;;;25.64;21.19;100976.15;1637250;87;21125;-63
2023/06/05 08:40:14;;;;;;;2.58;1.20;;;;;;;25.51;21.32;100976.17;1637711;87;21096;-61
2023/06/05 08:42:45;;;;;;;2.10;1.17;;;;;;;25.33;21.42;100979.53;1638018;87;21041;-62
2023/06/05 08:45:13;;;;;;;4.65;1.20;;;;;;;25.17;21.08;100972.25;1637127;88;21529;-61
2023/06/05 08:47:43;;;;;;;2.02;0.93;;;;;;;25.00;21.26;100975.34;1598761;89;21040;-61
2023/06/05 08:50:12;;;;;;;3.60;1.40;;;;;;;24.84;21.55;100967.44;1652002;85;21046;-60
2023/06/05 08:52:41;;;;;;;3.22;1.20;;;;;;;24.75;21.55;100966.31;1651766;87;21070;-62
2023/06/05 08:55:12;;;;;;;2.70;1.20;;;;;;;24.62;21.44;100976.63;1651737;87;21089;-63
2023/06/05 08:57:42;;;;;;;3.85;1.00;;;;;;;24.53;21.97;100978.29;1652036;86;21078;-63
2023/06/05 09:00:14;;;;;;;3.62;1.20;;;;;;;24.42;22.57;100970.41;1651989;85;21158;-64
2023/06/05 09:02:43;;;;;;;5.10;2.10;;;;;;;24.34;22.78;100968.99;1651794;85;21094;-62
2023/06/05 09:05:13;;;;;;;5.20;1.98;;;;;;;24.23;23.21;100964.44;1651921;86;21099;-63
2023/06/05 09:07:43;;;;;;;2.10;1.12;;;;;;;24.32;23.25;100964.78;1651239;86;21082;-63
2023/06/05 09:10:25;;;;;;;3.10;1.12;;;;;;;24.53;23.17;100962.87;1651717;87;21446;-63
2023/06/05 09:12:59;;;;;;;5.17;1.47;;;;;;;24.72;23.28;100955.66;1651483;85;21114;-63
2023/06/05 09:15:33;;;;;;;2.55;1.37;;;;;;;24.96;22.91;100955.39;1651640;87;21530;-62
2023/06/05 09:18:08;;;;;;;3.98;1.30;;;;;;;25.14;22.43;100953.17;1651584;87;21462;-64
2023/06/05 09:20:40;;;;;;;4.03;1.42;;;;;;;25.16;22.13;100959.34;1651945;85;21555;-65
2023/06/05 09:23:27;;;;;;;3.83;1.30;;;;;;;25.17;22.62;100956.82;1643702;87;21052;-62
2023/06/05 09:26:00;;;;;;;3.70;1.57;;;;;;;25.13;22.69;100950.94;1670379;84;21114;-61
2023/06/05 09:28:31;;;;;;;2.75;1.10;;;;;;;25.04;22.58;100948.98;1684051;85;21048;-63
2023/06/05 09:31:04;;;;;;;5.58;1.30;;;;;;;24.91;22.58;100950.34;1684283;84;21028;-62
2023/06/05 09:33:34;;;;;;;4.37;1.30;;;;;;;24.89;22.72;100945.02;1684913;85;21079;-63
2023/06/05 09:36:11;;;;;;;11.60;2.90;;;;;;;24.88;23.02;100942.50;1683261;85;21572;-62
2023/06/05 09:38:41;;;;;;;5.95;1.20;;;;;;;24.81;23.47;100948.38;1682603;85;21098;-63
2023/06/05 09:41:11;;;;;;;2.67;1.50;;;;;;;24.75;23.08;100940.24;1679213;85;21054;-63
2023/06/05 09:43:41;;;;;;;2.02;1.50;;;;;;;24.68;23.18;100941.05;1645506;85;21109;-63
2023/06/05 09:46:14;;;;;;;2.87;1.30;;;;;;;24.65;22.69;100943.84;1646936;86;21075;-63
2023/06/05 09:48:56;;;;;;;4.30;1.40;;;;;;;24.61;22.52;100942.16;1625942;88;21088;-61
2023/06/05 09:51:26;;;;;;;3.90;1.45;;;;;;;24.58;22.68;100939.06;1631788;87;21083;-62
2023/06/05 09:53:54;;;;;;;2.90;1.30;;;;;;;24.52;23.13;100937.38;1654833;86;21075;-63
2023/06/05 09:56:24;;;;;;;6.15;1.40;;;;;;;24.47;23.40;100931.77;1633411;88;21553;-61
2023/06/05 09:58:52;;;;;;;1.65;1.22;;;;;;;24.46;23.34;100928.68;1647552;87;21087;-61
2023/06/05 10:01:27;;;;;;;4.50;1.22;;;;;;;24.46;22.90;100930.08;1647629;86;21199;-61
2023/06/05 10:04:03;;;;;;;4.45;1.20;;;;;;;24.38;22.85;100933.42;1626171;88;21480;-63
2023/06/05 10:06:33;;;;;;;3.62;1.27;;;;;;;24.29;23.36;100925.56;1685307;85;21483;-64
2023/06/05 10:09:02;;;;;;;7.15;1.85;;;;;;;24.27;23.29;100928.36;1639313;85;21565;-62
2023/06/05 10:11:31;;;;;;;6.30;1.87;;;;;;;24.22;23.28;100931.95;1649262;86;21123;-60
2023/06/05 10:14:01;;;;;;;4.10;1.50;;;;;;;24.21;23.40;100933.07;1625809;88;21044;-63
2023/06/05 10:16:30;;;;;;;4.22;1.40;;;;;;;24.18;23.37;100929.42;1647489;86;21150;-64
2023/06/05 10:19:00;;;;;;;1.82;1.10;;;;;;;24.17;23.38;100928.30;1647305;86;21067;-63
2023/06/05 10:21:29;;;;;;;4.00;1.20;;;;;;;24.21;22.96;100923.27;1626426;87;21060;-64
2023/06/05 10:24:05;;;;;;;26.50;4.80;;;;;;;24.25;22.53;100918.80;1657294;86;21462;-60
2023/06/05 10:27:11;;;;;;;4.17;1.55;;;;;;;24.27;22.82;100919.95;1679636;85;21099;-61
2023/06/05 10:30:26;;;;;;;5.90;1.67;;;;;;;24.25;23.09;100917.40;1680709;85;21492;-62
2023/06/05 10:33:32;;;;;;;1.80;0.90;;;;;;;24.24;23.13;100914.87;1683384;85;21615;-62
2023/06/05 10:36:16;;;;;;;2.08;1.00;;;;;;;24.27;23.02;100908.19;1683936;84;21308;-62
2023/06/05 10:38:45;;;;;;;2.62;1.02;;;;;;;24.32;22.94;100903.16;1682136;85;21008;-62
2023/06/05 10:41:14;;;;;;;4.97;1.10;;;;;;;24.35;23.03;100904.01;1681167;85;21511;-62
2023/06/05 10:43:55;;;;;;;3.17;1.40;;;;;;;24.41;23.28;100907.09;1684173;85;21094;-62
2023/06/05 10:46:35;;;;;;;2.85;1.22;;;;;;;24.48;23.14;100912.44;1691867;84;21003;-63
2023/06/05 10:49:23;;;;;;;10.60;2.30;;;;;;;24.52;22.71;100907.95;1690918;84;21047;-62
2023/06/05 10:51:58;;;;;;;15.68;3.17;;;;;;;24.55;22.85;100913.00;1685093;85;21035;-62
2023/06/05 10:54:41;;;;;;;3.58;1.35;;;;;;;24.54;22.48;100905.72;1690136;84;21270;-63
2023/06/05 10:57:10;;;;;;;2.27;1.20;;;;;;;24.45;22.68;100897.02;1690160;85;21011;-61
2023/06/05 10:59:42;;;;;;;2.17;1.30;;;;;;;24.42;22.78;100899.54;1690164;85;21084;-61
2023/06/05 11:02:16;;;;;;;2.72;1.05;;;;;;;24.44;22.82;100890.30;1690129;84;21557;-60
2023/06/05 11:04:51;;;;;;;2.60;1.40;;;;;;;24.47;22.90;100887.78;1690212;85;21499;-63
2023/06/05 11:07:28;;;;;;;4.08;1.45;;;;;;;24.50;22.95;100884.98;1683015;84;21095;-64
2023/06/05 11:10:22;;;;;;;4.35;1.57;;;;;;;24.50;23.18;100881.63;1637972;87;21127;-63
2023/06/05 11:12:55;;;;;;;4.35;1.60;;;;;;;24.53;22.89;100888.06;1640026;87;21075;-63
2023/06/05 11:15:41;;;;;;;4.78;1.77;;;;;;;24.52;22.86;100882.74;1628978;88;21044;-62
2023/06/05 11:18:31;;;;;;;2.47;1.45;;;;;;;24.53;22.81;100885.83;1693874;84;21482;-61
2023/06/05 11:21:00;;;;;;;3.60;1.57;;;;;;;24.54;22.53;100884.70;1697814;84;21078;-61
2023/06/05 11:23:30;;;;;;;2.90;1.17;;;;;;;24.53;22.46;100885.83;1685806;84;21075;-61
2023/06/05 11:26:21;;;;;;;2.55;1.27;;;;;;;24.49;22.79;100878.53;1690082;83;21062;-62
2023/06/05 11:28:52;;;;;;;4.55;1.80;;;;;;;24.43;22.63;100876.01;1687856;83;21487;-62
2023/06/05 11:31:31;;;;;;;5.25;1.70;;;;;;;24.33;22.82;100867.03;1657493;86;21047;-62
2023/06/05 11:33:59;;;;;;;4.20;1.60;;;;;;;24.30;23.12;100860.59;1658826;86;21088;-63
2023/06/05 11:36:29;;;;;;;2.20;1.35;;;;;;;24.36;23.08;100861.43;1658531;86;21056;-61
2023/06/05 11:38:58;;;;;;;4.42;1.30;;;;;;;24.48;22.67;100862.00;1656002;85;21496;-62
2023/06/05 11:41:27;;;;;;;2.67;1.20;;;;;;;24.58;22.63;100867.61;1687984;85;21074;-62
2023/06/05 11:43:58;;;;;;;4.72;1.55;;;;;;;24.63;22.72;100860.05;1686154;85;21495;-62